Terminal Aerodrome Forecast
Issued by NWS

Home | Current Version | Previous Version | Text Only | Print | Product List | Glossary On
Versions: 1 2 3 4 5 6 7 8 9 10 11 12 13 14 15 16 17 18
762
FTUS43 KLSX 102332
TAFUIN
TAF
KUIN 102332Z 1100/1124 31006KT P6SM FEW250
     FM111200 20008KT P6SM SCT140
     FM111600 23012G20KT P6SM SCT150
     FM111800 27016G25KT P6SM FEW250
     FM112000 29018G28KT P6SM BKN110
     FM112300 31017G28KT P6SM OVC030=

USA.gov is the U.S. government's official web portal to all federal, state and local government web resources and services.